Etusivu
METAR-TAF:

METAR-TAF

Lentoasemat :

Shanghai Pudongin kansainvälinen lentoasema

Shanghai-Pudong, Kiina

Leveyspiiri: 31-07N, Pituuspiiri: 121-46E, korkeus merenpinnasta: 4 m

Tämänhetkinen sää

Tämä raportti tehtiin 11 minuuttia sitten, kello 17.00 UTC
Tuuli 6 kn etelästä
Lämpötila 20°C
Kosteus 56%
Ilmanpaine 1011 hPa
Näkyvyys 10 km tai enemmän
ei pilviä alle 1500 m:ssä eikä cumulonimbus-pilviä

METAR: ZSPD 211700Z 19003MPS CAVOK 20/11 Q1011 NOSIG

Aika: 01:11 (17:11 UTC)

Sääennuste

Tämä raportti tehtiin 8 tuntia ja 1 minuuttia sitten, kello 09.10 UTC
Ennuste voimassa 21. päivästä klo 12 UTC - 22. päivään klo 12 UTC
Tuuli 8 kn etelästä/lounaasta
Näkyvyys: 6000 m
Hajonneita pilviä 1600 ft:n korkeudessa

TAF: ZSPD 210910Z 2112/2212 21004MPS 6000 BKN016 TX28/2206Z TN18/2121Z

Säähavainnot ja -ennusteet yli 4000 lentoasemalta (METAR- ja TAF-raportit).

Käytössä olevat sääasemat on merkitty karttaan keltaisilla ja punaisilla pisteillä.

Aseta hiiri pisteen päälle nähdäksesi sääaseman nimen.

Klikkaa sitten nähdäksesi säähavainnot ja -ennusteet.

Kartan vaihtaminen: klikkaa mustalla rastilla varustettuja vihreitä pisteitä, niin voit zoomata sisään; viivalla varustettua vihreää pistettä, niin voit zoomata ulos tai vihreitä nuolia, niin pääset viereisille kartoille.


METAR-TAF: